sensor_id;sensor_type;location;lat;lon;timestamp;P1;durP1;ratioP1;P2;durP2;ratioP2
17197;SDS011;8715;51.010;6.812;2024-01-30T00:00:40;819.63;;;774.25;;
17197;SDS011;8715;51.010;6.812;2024-01-30T00:03:25;828.38;;;782.40;;
17197;SDS011;8715;51.010;6.812;2024-01-30T00:06:10;824.10;;;778.60;;
17197;SDS011;8715;51.010;6.812;2024-01-30T00:08:56;823.95;;;778.80;;
17197;SDS011;8715;51.010;6.812;2024-01-30T00:11:42;820.50;;;775.13;;
17197;SDS011;8715;51.010;6.812;2024-01-30T00:14:27;830.08;;;783.90;;
17197;SDS011;8715;51.010;6.812;2024-01-30T00:17:12;830.35;;;784.75;;
17197;SDS011;8715;51.010;6.812;2024-01-30T00:19:57;827.90;;;782.10;;
17197;SDS011;8715;51.010;6.812;2024-01-30T00:22:43;830.42;;;785.13;;
17197;SDS011;8715;51.010;6.812;2024-01-30T00:25:28;818.42;;;774.33;;
17197;SDS011;8715;51.010;6.812;2024-01-30T00:28:14;827.40;;;781.72;;
17197;SDS011;8715;51.010;6.812;2024-01-30T00:30:59;826.42;;;781.45;;
17197;SDS011;8715;51.010;6.812;2024-01-30T00:33:45;817.38;;;772.85;;
17197;SDS011;8715;51.010;6.812;2024-01-30T00:36:30;821.45;;;776.53;;
17197;SDS011;8715;51.010;6.812;2024-01-30T00:39:15;828.15;;;782.85;;
17197;SDS011;8715;51.010;6.812;2024-01-30T00:42:00;816.78;;;772.50;;
17197;SDS011;8715;51.010;6.812;2024-01-30T00:44:46;832.38;;;786.38;;
17197;SDS011;8715;51.010;6.812;2024-01-30T00:47:30;821.38;;;776.60;;
17197;SDS011;8715;51.010;6.812;2024-01-30T00:50:16;822.13;;;777.17;;
17197;SDS011;8715;51.010;6.812;2024-01-30T00:53:01;825.05;;;780.10;;
17197;SDS011;8715;51.010;6.812;2024-01-30T00:55:46;821.00;;;776.28;;
17197;SDS011;8715;51.010;6.812;2024-01-30T00:58:31;817.00;;;773.13;;
17197;SDS011;8715;51.010;6.812;2024-01-30T01:01:18;816.97;;;772.53;;
17197;SDS011;8715;51.010;6.812;2024-01-30T01:04:03;821.08;;;776.88;;
17197;SDS011;8715;51.010;6.812;2024-01-30T01:06:48;816.47;;;772.10;;
17197;SDS011;8715;51.010;6.812;2024-01-30T01:09:33;821.72;;;777.45;;
17197;SDS011;8715;51.010;6.812;2024-01-30T01:12:18;818.35;;;774.03;;
17197;SDS011;8715;51.010;6.812;2024-01-30T01:15:03;825.60;;;781.08;;
17197;SDS011;8715;51.010;6.812;2024-01-30T01:17:50;817.83;;;773.90;;
17197;SDS011;8715;51.010;6.812;2024-01-30T01:20:35;818.38;;;774.30;;
17197;SDS011;8715;51.010;6.812;2024-01-30T01:23:20;812.05;;;768.13;;
17197;SDS011;8715;51.010;6.812;2024-01-30T01:26:05;818.33;;;774.65;;
17197;SDS011;8715;51.010;6.812;2024-01-30T01:28:50;821.58;;;777.30;;
17197;SDS011;8715;51.010;6.812;2024-01-30T01:31:35;814.28;;;770.45;;
17197;SDS011;8715;51.010;6.812;2024-01-30T01:34:25;815.58;;;771.90;;
17197;SDS011;8715;51.010;6.812;2024-01-30T01:37:10;816.25;;;772.35;;
17197;SDS011;8715;51.010;6.812;2024-01-30T01:39:55;815.45;;;771.42;;
17197;SDS011;8715;51.010;6.812;2024-01-30T01:42:40;819.28;;;775.42;;
17197;SDS011;8715;51.010;6.812;2024-01-30T01:45:25;810.88;;;767.22;;
17197;SDS011;8715;51.010;6.812;2024-01-30T01:48:10;812.60;;;769.08;;
17197;SDS011;8715;51.010;6.812;2024-01-30T01:50:57;810.97;;;767.88;;
17197;SDS011;8715;51.010;6.812;2024-01-30T01:53:43;816.80;;;773.03;;
17197;SDS011;8715;51.010;6.812;2024-01-30T01:56:28;814.55;;;770.95;;
17197;SDS011;8715;51.010;6.812;2024-01-30T01:59:14;818.03;;;774.17;;
17197;SDS011;8715;51.010;6.812;2024-01-30T02:01:59;817.92;;;774.20;;
17197;SDS011;8715;51.010;6.812;2024-01-30T02:04:45;825.83;;;781.30;;
17197;SDS011;8715;51.010;6.812;2024-01-30T02:07:32;817.05;;;773.05;;
17197;SDS011;8715;51.010;6.812;2024-01-30T02:10:17;817.15;;;773.63;;
17197;SDS011;8715;51.010;6.812;2024-01-30T02:13:02;823.38;;;778.65;;
17197;SDS011;8715;51.010;6.812;2024-01-30T02:15:49;820.45;;;775.58;;
17197;SDS011;8715;51.010;6.812;2024-01-30T02:18:34;820.28;;;776.28;;
17197;SDS011;8715;51.010;6.812;2024-01-30T02:21:20;817.92;;;773.88;;
17197;SDS011;8715;51.010;6.812;2024-01-30T02:24:05;820.42;;;775.80;;
17197;SDS011;8715;51.010;6.812;2024-01-30T02:26:50;821.13;;;776.72;;
17197;SDS011;8715;51.010;6.812;2024-01-30T02:29:35;811.13;;;768.00;;
17197;SDS011;8715;51.010;6.812;2024-01-30T02:32:21;822.63;;;778.08;;
17197;SDS011;8715;51.010;6.812;2024-01-30T02:35:06;821.75;;;777.47;;
17197;SDS011;8715;51.010;6.812;2024-01-30T02:37:53;821.20;;;776.42;;
17197;SDS011;8715;51.010;6.812;2024-01-30T02:40:38;815.10;;;771.15;;
17197;SDS011;8715;51.010;6.812;2024-01-30T02:43:23;815.90;;;772.30;;
17197;SDS011;8715;51.010;6.812;2024-01-30T02:46:08;823.17;;;778.72;;
17197;SDS011;8715;51.010;6.812;2024-01-30T02:48:53;823.28;;;778.25;;
17197;SDS011;8715;51.010;6.812;2024-01-30T02:51:38;828.60;;;783.30;;
17197;SDS011;8715;51.010;6.812;2024-01-30T02:54:24;819.00;;;774.78;;
17197;SDS011;8715;51.010;6.812;2024-01-30T02:57:10;818.97;;;774.33;;
17197;SDS011;8715;51.010;6.812;2024-01-30T02:59:55;820.75;;;776.25;;
17197;SDS011;8715;51.010;6.812;2024-01-30T03:02:40;824.22;;;779.72;;
17197;SDS011;8715;51.010;6.812;2024-01-30T03:05:25;825.88;;;780.78;;
17197;SDS011;8715;51.010;6.812;2024-01-30T03:08:10;819.42;;;774.92;;
17197;SDS011;8715;51.010;6.812;2024-01-30T03:10:56;814.30;;;770.35;;
17197;SDS011;8715;51.010;6.812;2024-01-30T03:13:41;823.42;;;778.78;;
17197;SDS011;8715;51.010;6.812;2024-01-30T03:16:26;824.75;;;779.50;;
17197;SDS011;8715;51.010;6.812;2024-01-30T03:19:11;830.70;;;785.22;;
17197;SDS011;8715;51.010;6.812;2024-01-30T03:21:56;817.75;;;773.13;;
17197;SDS011;8715;51.010;6.812;2024-01-30T03:24:42;819.40;;;774.92;;
17197;SDS011;8715;51.010;6.812;2024-01-30T03:27:28;822.45;;;777.53;;
17197;SDS011;8715;51.010;6.812;2024-01-30T03:30:14;825.38;;;779.97;;
17197;SDS011;8715;51.010;6.812;2024-01-30T03:32:59;831.03;;;785.67;;
17197;SDS011;8715;51.010;6.812;2024-01-30T03:35:44;828.92;;;783.58;;
17197;SDS011;8715;51.010;6.812;2024-01-30T03:38:29;831.03;;;785.05;;
17197;SDS011;8715;51.010;6.812;2024-01-30T03:41:16;836.30;;;790.30;;
17197;SDS011;8715;51.010;6.812;2024-01-30T03:44:02;826.28;;;781.13;;
17197;SDS011;8715;51.010;6.812;2024-01-30T03:46:48;826.25;;;780.85;;
17197;SDS011;8715;51.010;6.812;2024-01-30T03:49:32;835.53;;;789.17;;
17197;SDS011;8715;51.010;6.812;2024-01-30T03:52:18;819.28;;;774.85;;
17197;SDS011;8715;51.010;6.812;2024-01-30T03:55:03;832.20;;;786.13;;
17197;SDS011;8715;51.010;6.812;2024-01-30T03:57:48;822.70;;;777.50;;
17197;SDS011;8715;51.010;6.812;2024-01-30T04:00:34;825.08;;;779.58;;
17197;SDS011;8715;51.010;6.812;2024-01-30T04:03:19;821.75;;;776.92;;
17197;SDS011;8715;51.010;6.812;2024-01-30T04:06:04;820.83;;;775.42;;
17197;SDS011;8715;51.010;6.812;2024-01-30T04:08:49;822.53;;;777.28;;
17197;SDS011;8715;51.010;6.812;2024-01-30T04:11:34;832.55;;;786.60;;
17197;SDS011;8715;51.010;6.812;2024-01-30T04:14:19;831.50;;;785.88;;
17197;SDS011;8715;51.010;6.812;2024-01-30T04:17:05;824.60;;;779.35;;
17197;SDS011;8715;51.010;6.812;2024-01-30T04:19:51;824.40;;;779.10;;
17197;SDS011;8715;51.010;6.812;2024-01-30T04:22:36;826.03;;;780.65;;
17197;SDS011;8715;51.010;6.812;2024-01-30T04:25:21;827.45;;;781.88;;
17197;SDS011;8715;51.010;6.812;2024-01-30T04:28:05;818.95;;;774.30;;
17197;SDS011;8715;51.010;6.812;2024-01-30T04:30:51;826.85;;;781.38;;
17197;SDS011;8715;51.010;6.812;2024-01-30T04:33:37;820.00;;;775.17;;
17197;SDS011;8715;51.010;6.812;2024-01-30T04:36:22;824.30;;;779.30;;
17197;SDS011;8715;51.010;6.812;2024-01-30T04:39:07;820.33;;;776.13;;
17197;SDS011;8715;51.010;6.812;2024-01-30T04:41:52;825.17;;;780.10;;
17197;SDS011;8715;51.010;6.812;2024-01-30T04:44:37;826.05;;;781.17;;
17197;SDS011;8715;51.010;6.812;2024-01-30T04:47:22;827.00;;;781.80;;
17197;SDS011;8715;51.010;6.812;2024-01-30T04:50:09;818.97;;;774.97;;
17197;SDS011;8715;51.010;6.812;2024-01-30T04:52:54;817.13;;;772.63;;
17197;SDS011;8715;51.010;6.812;2024-01-30T04:55:39;828.42;;;783.20;;
17197;SDS011;8715;51.010;6.812;2024-01-30T04:58:24;821.08;;;776.67;;
17197;SDS011;8715;51.010;6.812;2024-01-30T05:01:09;821.05;;;777.20;;
17197;SDS011;8715;51.010;6.812;2024-01-30T05:03:54;822.75;;;777.75;;
17197;SDS011;8715;51.010;6.812;2024-01-30T05:06:40;814.60;;;770.65;;
17197;SDS011;8715;51.010;6.812;2024-01-30T05:09:25;817.60;;;773.15;;
17197;SDS011;8715;51.010;6.812;2024-01-30T05:12:10;817.95;;;774.13;;
17197;SDS011;8715;51.010;6.812;2024-01-30T05:14:55;815.38;;;771.35;;
17197;SDS011;8715;51.010;6.812;2024-01-30T05:17:40;810.47;;;766.58;;
17197;SDS011;8715;51.010;6.812;2024-01-30T05:20:25;814.65;;;771.00;;
17197;SDS011;8715;51.010;6.812;2024-01-30T05:23:14;808.30;;;765.33;;
17197;SDS011;8715;51.010;6.812;2024-01-30T05:25:59;815.70;;;771.90;;
17197;SDS011;8715;51.010;6.812;2024-01-30T05:28:44;818.78;;;774.90;;
17197;SDS011;8715;51.010;6.812;2024-01-30T05:31:29;810.17;;;767.15;;
17197;SDS011;8715;51.010;6.812;2024-01-30T05:34:15;811.78;;;768.15;;
17197;SDS011;8715;51.010;6.812;2024-01-30T05:37:01;817.00;;;772.97;;
17197;SDS011;8715;51.010;6.812;2024-01-30T05:39:48;817.92;;;773.85;;
17197;SDS011;8715;51.010;6.812;2024-01-30T05:42:33;813.30;;;769.70;;
17197;SDS011;8715;51.010;6.812;2024-01-30T05:45:18;820.05;;;776.22;;
17197;SDS011;8715;51.010;6.812;2024-01-30T05:48:03;822.25;;;777.83;;
17197;SDS011;8715;51.010;6.812;2024-01-30T05:50:49;820.40;;;776.17;;
17197;SDS011;8715;51.010;6.812;2024-01-30T05:53:34;810.38;;;767.05;;
17197;SDS011;8715;51.010;6.812;2024-01-30T05:56:21;813.65;;;770.60;;
17197;SDS011;8715;51.010;6.812;2024-01-30T05:59:06;823.15;;;778.60;;
17197;SDS011;8715;51.010;6.812;2024-01-30T06:01:51;808.10;;;764.75;;
17197;SDS011;8715;51.010;6.812;2024-01-30T06:04:36;821.03;;;776.97;;
17197;SDS011;8715;51.010;6.812;2024-01-30T06:07:21;819.30;;;775.08;;
17197;SDS011;8715;51.010;6.812;2024-01-30T06:10:07;809.38;;;766.30;;
17197;SDS011;8715;51.010;6.812;2024-01-30T06:12:53;818.80;;;775.17;;
17197;SDS011;8715;51.010;6.812;2024-01-30T06:15:38;820.13;;;776.17;;
17197;SDS011;8715;51.010;6.812;2024-01-30T06:18:24;811.88;;;768.17;;
17197;SDS011;8715;51.010;6.812;2024-01-30T06:21:11;811.92;;;768.63;;
17197;SDS011;8715;51.010;6.812;2024-01-30T06:23:56;807.67;;;765.47;;
17197;SDS011;8715;51.010;6.812;2024-01-30T06:26:41;822.70;;;778.42;;
17197;SDS011;8715;51.010;6.812;2024-01-30T06:29:27;813.40;;;770.17;;
17197;SDS011;8715;51.010;6.812;2024-01-30T06:32:12;814.92;;;771.42;;
17197;SDS011;8715;51.010;6.812;2024-01-30T06:34:57;818.83;;;774.50;;
17197;SDS011;8715;51.010;6.812;2024-01-30T06:37:42;807.85;;;764.75;;
17197;SDS011;8715;51.010;6.812;2024-01-30T06:40:27;815.30;;;772.00;;
17197;SDS011;8715;51.010;6.812;2024-01-30T06:43:12;821.88;;;777.75;;
17197;SDS011;8715;51.010;6.812;2024-01-30T06:45:59;815.28;;;771.72;;
17197;SDS011;8715;51.010;6.812;2024-01-30T06:48:44;815.35;;;771.28;;
17197;SDS011;8715;51.010;6.812;2024-01-30T06:51:29;814.42;;;770.70;;
17197;SDS011;8715;51.010;6.812;2024-01-30T06:54:14;819.05;;;775.30;;
17197;SDS011;8715;51.010;6.812;2024-01-30T06:57:00;814.10;;;770.00;;
17197;SDS011;8715;51.010;6.812;2024-01-30T06:59:45;816.17;;;771.88;;
17197;SDS011;8715;51.010;6.812;2024-01-30T07:02:32;824.95;;;779.95;;
17197;SDS011;8715;51.010;6.812;2024-01-30T07:05:17;817.25;;;773.13;;
17197;SDS011;8715;51.010;6.812;2024-01-30T07:08:02;825.55;;;780.30;;
17197;SDS011;8715;51.010;6.812;2024-01-30T07:10:47;821.78;;;777.22;;
17197;SDS011;8715;51.010;6.812;2024-01-30T07:13:32;828.13;;;782.63;;
17197;SDS011;8715;51.010;6.812;2024-01-30T07:16:17;835.10;;;788.70;;
17197;SDS011;8715;51.010;6.812;2024-01-30T07:19:03;827.03;;;781.95;;
17197;SDS011;8715;51.010;6.812;2024-01-30T07:21:48;835.22;;;789.13;;
17197;SDS011;8715;51.010;6.812;2024-01-30T07:24:33;818.50;;;774.40;;
17197;SDS011;8715;51.010;6.812;2024-01-30T07:27:18;816.03;;;771.72;;
17197;SDS011;8715;51.010;6.812;2024-01-30T07:30:05;820.35;;;776.03;;
17197;SDS011;8715;51.010;6.812;2024-01-30T07:32:51;830.50;;;785.03;;
17197;SDS011;8715;51.010;6.812;2024-01-30T07:35:37;825.30;;;780.38;;
17197;SDS011;8715;51.010;6.812;2024-01-30T07:38:22;825.97;;;781.13;;
17197;SDS011;8715;51.010;6.812;2024-01-30T07:41:07;825.55;;;780.53;;
17197;SDS011;8715;51.010;6.812;2024-01-30T07:43:52;823.45;;;778.10;;
17197;SDS011;8715;51.010;6.812;2024-01-30T07:46:37;822.25;;;777.70;;
17197;SDS011;8715;51.010;6.812;2024-01-30T07:49:22;817.92;;;773.58;;
17197;SDS011;8715;51.010;6.812;2024-01-30T07:52:08;817.60;;;773.00;;
17197;SDS011;8715;51.010;6.812;2024-01-30T07:54:53;825.97;;;780.30;;
17197;SDS011;8715;51.010;6.812;2024-01-30T08:04:11;828.00;;;782.47;;
17197;SDS011;8715;51.010;6.812;2024-01-30T08:06:56;827.90;;;782.30;;
17197;SDS011;8715;51.010;6.812;2024-01-30T08:09:42;834.42;;;788.15;;
17197;SDS011;8715;51.010;6.812;2024-01-30T08:12:28;822.17;;;776.95;;
17197;SDS011;8715;51.010;6.812;2024-01-30T08:15:13;828.15;;;782.10;;
17197;SDS011;8715;51.010;6.812;2024-01-30T08:17:58;832.83;;;786.25;;
17197;SDS011;8715;51.010;6.812;2024-01-30T08:20:43;825.15;;;779.17;;
17197;SDS011;8715;51.010;6.812;2024-01-30T08:23:28;834.55;;;788.08;;
17197;SDS011;8715;51.010;6.812;2024-01-30T08:26:14;833.17;;;786.70;;
17197;SDS011;8715;51.010;6.812;2024-01-30T08:28:59;826.40;;;780.78;;
17197;SDS011;8715;51.010;6.812;2024-01-30T08:31:44;832.45;;;785.97;;
17197;SDS011;8715;51.010;6.812;2024-01-30T08:34:30;842.03;;;794.58;;
17197;SDS011;8715;51.010;6.812;2024-01-30T08:37:15;843.20;;;795.53;;
17197;SDS011;8715;51.010;6.812;2024-01-30T08:40:00;849.03;;;801.33;;
17197;SDS011;8715;51.010;6.812;2024-01-30T08:42:49;842.67;;;795.00;;
17197;SDS011;8715;51.010;6.812;2024-01-30T08:45:34;838.40;;;790.67;;
17197;SDS011;8715;51.010;6.812;2024-01-30T08:48:19;838.88;;;791.40;;
17197;SDS011;8715;51.010;6.812;2024-01-30T08:51:06;835.47;;;787.97;;
17197;SDS011;8715;51.010;6.812;2024-01-30T08:53:52;837.58;;;789.78;;
17197;SDS011;8715;51.010;6.812;2024-01-30T08:56:37;835.60;;;788.10;;
17197;SDS011;8715;51.010;6.812;2024-01-30T08:59:24;840.60;;;793.00;;
17197;SDS011;8715;51.010;6.812;2024-01-30T09:02:08;844.13;;;795.75;;
17197;SDS011;8715;51.010;6.812;2024-01-30T09:04:56;849.20;;;800.30;;
17197;SDS011;8715;51.010;6.812;2024-01-30T09:07:41;844.42;;;795.63;;
17197;SDS011;8715;51.010;6.812;2024-01-30T09:10:25;846.25;;;797.40;;
17197;SDS011;8715;51.010;6.812;2024-01-30T09:13:10;838.80;;;790.83;;
17197;SDS011;8715;51.010;6.812;2024-01-30T09:15:57;848.33;;;799.17;;
17197;SDS011;8715;51.010;6.812;2024-01-30T09:18:42;845.40;;;796.15;;
17197;SDS011;8715;51.010;6.812;2024-01-30T09:21:27;851.58;;;801.58;;
17197;SDS011;8715;51.010;6.812;2024-01-30T09:24:12;855.10;;;804.88;;
17197;SDS011;8715;51.010;6.812;2024-01-30T09:26:57;849.90;;;799.45;;
17197;SDS011;8715;51.010;6.812;2024-01-30T09:29:42;855.05;;;804.13;;
17197;SDS011;8715;51.010;6.812;2024-01-30T09:32:28;846.88;;;796.72;;
17197;SDS011;8715;51.010;6.812;2024-01-30T09:35:13;852.40;;;801.67;;
17197;SDS011;8715;51.010;6.812;2024-01-30T09:37:58;861.75;;;810.08;;
17197;SDS011;8715;51.010;6.812;2024-01-30T09:40:44;855.88;;;804.47;;
17197;SDS011;8715;51.010;6.812;2024-01-30T09:43:30;864.50;;;812.15;;
17197;SDS011;8715;51.010;6.812;2024-01-30T09:46:17;857.65;;;805.78;;
17197;SDS011;8715;51.010;6.812;2024-01-30T09:49:03;861.70;;;809.30;;
17197;SDS011;8715;51.010;6.812;2024-01-30T09:51:48;856.97;;;805.20;;
17197;SDS011;8715;51.010;6.812;2024-01-30T09:54:34;860.17;;;807.78;;
17197;SDS011;8715;51.010;6.812;2024-01-30T09:57:19;858.53;;;806.80;;
17197;SDS011;8715;51.010;6.812;2024-01-30T10:00:05;858.00;;;806.05;;
17197;SDS011;8715;51.010;6.812;2024-01-30T10:02:52;863.63;;;810.95;;
17197;SDS011;8715;51.010;6.812;2024-01-30T10:05:38;866.90;;;814.13;;
17197;SDS011;8715;51.010;6.812;2024-01-30T10:08:25;862.30;;;809.90;;
17197;SDS011;8715;51.010;6.812;2024-01-30T10:11:11;856.10;;;804.40;;
17197;SDS011;8715;51.010;6.812;2024-01-30T10:13:56;861.90;;;809.60;;
17197;SDS011;8715;51.010;6.812;2024-01-30T10:16:41;859.70;;;807.28;;
17197;SDS011;8715;51.010;6.812;2024-01-30T10:19:26;862.50;;;810.38;;
17197;SDS011;8715;51.010;6.812;2024-01-30T10:22:12;866.78;;;813.83;;
17197;SDS011;8715;51.010;6.812;2024-01-30T10:24:57;865.22;;;812.25;;
17197;SDS011;8715;51.010;6.812;2024-01-30T10:27:42;863.50;;;810.47;;
17197;SDS011;8715;51.010;6.812;2024-01-30T10:30:27;869.25;;;815.40;;
17197;SDS011;8715;51.010;6.812;2024-01-30T10:33:12;870.33;;;816.67;;
17197;SDS011;8715;51.010;6.812;2024-01-30T10:35:59;872.30;;;818.45;;
17197;SDS011;8715;51.010;6.812;2024-01-30T10:38:46;860.97;;;808.03;;
17197;SDS011;8715;51.010;6.812;2024-01-30T10:41:31;863.17;;;809.70;;
17197;SDS011;8715;51.010;6.812;2024-01-30T10:44:21;864.55;;;810.92;;
17197;SDS011;8715;51.010;6.812;2024-01-30T10:47:07;867.40;;;813.45;;
17197;SDS011;8715;51.010;6.812;2024-01-30T10:49:53;868.30;;;814.25;;
17197;SDS011;8715;51.010;6.812;2024-01-30T10:52:39;866.95;;;813.00;;
17197;SDS011;8715;51.010;6.812;2024-01-30T10:55:27;866.70;;;812.80;;
17197;SDS011;8715;51.010;6.812;2024-01-30T10:58:13;864.97;;;810.90;;
17197;SDS011;8715;51.010;6.812;2024-01-30T11:00:59;870.33;;;815.83;;
17197;SDS011;8715;51.010;6.812;2024-01-30T11:03:44;874.10;;;819.05;;
17197;SDS011;8715;51.010;6.812;2024-01-30T11:06:29;873.65;;;818.42;;
17197;SDS011;8715;51.010;6.812;2024-01-30T11:09:16;867.55;;;812.53;;
17197;SDS011;8715;51.010;6.812;2024-01-30T11:12:03;870.90;;;815.53;;
17197;SDS011;8715;51.010;6.812;2024-01-30T11:14:49;874.03;;;818.50;;
17197;SDS011;8715;51.010;6.812;2024-01-30T11:17:40;872.78;;;817.55;;
17197;SDS011;8715;51.010;6.812;2024-01-30T11:20:27;880.47;;;824.70;;
17197;SDS011;8715;51.010;6.812;2024-01-30T11:23:15;874.08;;;818.63;;
17197;SDS011;8715;51.010;6.812;2024-01-30T11:26:00;868.03;;;813.10;;
17197;SDS011;8715;51.010;6.812;2024-01-30T11:28:52;872.42;;;817.03;;
17197;SDS011;8715;51.010;6.812;2024-01-30T11:31:37;881.42;;;824.95;;
17197;SDS011;8715;51.010;6.812;2024-01-30T11:34:22;875.33;;;819.17;;
17197;SDS011;8715;51.010;6.812;2024-01-30T11:37:09;881.67;;;824.65;;
17197;SDS011;8715;51.010;6.812;2024-01-30T11:39:54;879.47;;;822.35;;
17197;SDS011;8715;51.010;6.812;2024-01-30T11:42:40;881.22;;;824.00;;
17197;SDS011;8715;51.010;6.812;2024-01-30T11:45:27;889.65;;;831.17;;
17197;SDS011;8715;51.010;6.812;2024-01-30T11:48:12;884.00;;;826.15;;
17197;SDS011;8715;51.010;6.812;2024-01-30T11:50:57;887.97;;;829.67;;
17197;SDS011;8715;51.010;6.812;2024-01-30T11:53:43;889.05;;;830.45;;
17197;SDS011;8715;51.010;6.812;2024-01-30T11:56:28;890.28;;;831.47;;
17197;SDS011;8715;51.010;6.812;2024-01-30T11:59:13;889.25;;;830.28;;
17197;SDS011;8715;51.010;6.812;2024-01-30T12:02:00;892.47;;;832.55;;
17197;SDS011;8715;51.010;6.812;2024-01-30T12:04:45;893.47;;;833.40;;
17197;SDS011;8715;51.010;6.812;2024-01-30T12:07:30;899.85;;;838.97;;
17197;SDS011;8715;51.010;6.812;2024-01-30T12:10:15;896.22;;;835.75;;
17197;SDS011;8715;51.010;6.812;2024-01-30T12:13:01;901.03;;;840.20;;
17197;SDS011;8715;51.010;6.812;2024-01-30T12:15:47;897.95;;;837.15;;
17197;SDS011;8715;51.010;6.812;2024-01-30T12:18:33;901.92;;;840.55;;
17197;SDS011;8715;51.010;6.812;2024-01-30T12:21:18;898.17;;;837.17;;
17197;SDS011;8715;51.010;6.812;2024-01-30T12:24:04;892.03;;;831.40;;
17197;SDS011;8715;51.010;6.812;2024-01-30T12:26:51;895.13;;;834.42;;
17197;SDS011;8715;51.010;6.812;2024-01-30T12:29:36;895.67;;;834.80;;
17197;SDS011;8715;51.010;6.812;2024-01-30T12:32:22;897.67;;;837.30;;
17197;SDS011;8715;51.010;6.812;2024-01-30T12:35:10;895.15;;;835.13;;
17197;SDS011;8715;51.010;6.812;2024-01-30T12:37:55;899.42;;;838.70;;
17197;SDS011;8715;51.010;6.812;2024-01-30T12:40:40;895.53;;;834.70;;
17197;SDS011;8715;51.010;6.812;2024-01-30T12:43:25;894.25;;;834.05;;
17197;SDS011;8715;51.010;6.812;2024-01-30T12:46:10;894.17;;;834.13;;
17197;SDS011;8715;51.010;6.812;2024-01-30T12:48:55;896.42;;;836.22;;
17197;SDS011;8715;51.010;6.812;2024-01-30T12:51:42;895.70;;;835.00;;
17197;SDS011;8715;51.010;6.812;2024-01-30T12:54:27;896.63;;;836.45;;
17197;SDS011;8715;51.010;6.812;2024-01-30T12:57:12;893.60;;;833.65;;
17197;SDS011;8715;51.010;6.812;2024-01-30T12:59:57;889.78;;;829.85;;
17197;SDS011;8715;51.010;6.812;2024-01-30T13:02:42;894.72;;;834.83;;
17197;SDS011;8715;51.010;6.812;2024-01-30T13:05:28;892.58;;;832.92;;
17197;SDS011;8715;51.010;6.812;2024-01-30T13:08:14;893.50;;;833.67;;
17197;SDS011;8715;51.010;6.812;2024-01-30T13:10:59;892.13;;;832.53;;
17197;SDS011;8715;51.010;6.812;2024-01-30T13:13:44;888.08;;;829.10;;
17197;SDS011;8715;51.010;6.812;2024-01-30T13:16:29;893.78;;;834.47;;
17197;SDS011;8715;51.010;6.812;2024-01-30T13:19:14;894.25;;;834.60;;
17197;SDS011;8715;51.010;6.812;2024-01-30T13:21:59;885.13;;;826.47;;
17197;SDS011;8715;51.010;6.812;2024-01-30T13:24:46;890.05;;;830.75;;
17197;SDS011;8715;51.010;6.812;2024-01-30T13:27:30;885.97;;;827.22;;
17197;SDS011;8715;51.010;6.812;2024-01-30T13:30:16;890.20;;;831.00;;
17197;SDS011;8715;51.010;6.812;2024-01-30T13:33:00;888.30;;;829.60;;
17197;SDS011;8715;51.010;6.812;2024-01-30T13:35:47;885.95;;;827.25;;
17197;SDS011;8715;51.010;6.812;2024-01-30T13:38:31;887.28;;;828.28;;
17197;SDS011;8715;51.010;6.812;2024-01-30T13:41:18;886.22;;;827.90;;
17197;SDS011;8715;51.010;6.812;2024-01-30T13:44:04;886.85;;;828.20;;
17197;SDS011;8715;51.010;6.812;2024-01-30T13:46:49;893.55;;;834.47;;
17197;SDS011;8715;51.010;6.812;2024-01-30T13:49:34;893.85;;;835.00;;
17197;SDS011;8715;51.010;6.812;2024-01-30T13:52:20;882.30;;;824.22;;
17197;SDS011;8715;51.010;6.812;2024-01-30T13:55:05;889.22;;;830.40;;
17197;SDS011;8715;51.010;6.812;2024-01-30T13:57:51;890.67;;;831.55;;
17197;SDS011;8715;51.010;6.812;2024-01-30T14:00:36;889.55;;;830.78;;
17197;SDS011;8715;51.010;6.812;2024-01-30T14:03:22;888.20;;;829.70;;
17197;SDS011;8715;51.010;6.812;2024-01-30T14:06:06;887.50;;;829.45;;
17197;SDS011;8715;51.010;6.812;2024-01-30T14:08:52;891.03;;;832.28;;
17197;SDS011;8715;51.010;6.812;2024-01-30T14:11:37;888.47;;;829.63;;
17197;SDS011;8715;51.010;6.812;2024-01-30T14:14:24;886.15;;;827.95;;
17197;SDS011;8715;51.010;6.812;2024-01-30T14:17:09;888.70;;;830.15;;
17197;SDS011;8715;51.010;6.812;2024-01-30T14:19:54;890.40;;;832.10;;
17197;SDS011;8715;51.010;6.812;2024-01-30T14:22:38;891.38;;;832.75;;
17197;SDS011;8715;51.010;6.812;2024-01-30T14:25:24;888.25;;;830.17;;
17197;SDS011;8715;51.010;6.812;2024-01-30T14:28:09;888.30;;;829.75;;
17197;SDS011;8715;51.010;6.812;2024-01-30T14:30:55;887.30;;;829.00;;
17197;SDS011;8715;51.010;6.812;2024-01-30T14:33:40;888.92;;;830.53;;
17197;SDS011;8715;51.010;6.812;2024-01-30T14:36:26;886.42;;;828.00;;
17197;SDS011;8715;51.010;6.812;2024-01-30T14:39:11;887.45;;;829.03;;
17197;SDS011;8715;51.010;6.812;2024-01-30T14:41:56;883.78;;;825.83;;
17197;SDS011;8715;51.010;6.812;2024-01-30T14:44:41;888.85;;;830.05;;
17197;SDS011;8715;51.010;6.812;2024-01-30T14:47:28;886.63;;;828.05;;
17197;SDS011;8715;51.010;6.812;2024-01-30T14:50:14;885.15;;;826.67;;
17197;SDS011;8715;51.010;6.812;2024-01-30T14:53:00;889.33;;;830.28;;
17197;SDS011;8715;51.010;6.812;2024-01-30T14:55:45;889.00;;;829.63;;
17197;SDS011;8715;51.010;6.812;2024-01-30T14:58:30;890.70;;;831.75;;
17197;SDS011;8715;51.010;6.812;2024-01-30T15:01:16;890.17;;;831.03;;
17197;SDS011;8715;51.010;6.812;2024-01-30T15:04:03;886.13;;;827.40;;
17197;SDS011;8715;51.010;6.812;2024-01-30T15:06:48;886.20;;;827.83;;
17197;SDS011;8715;51.010;6.812;2024-01-30T15:09:33;898.08;;;839.05;;
17197;SDS011;8715;51.010;6.812;2024-01-30T15:12:19;890.17;;;831.33;;
17197;SDS011;8715;51.010;6.812;2024-01-30T15:15:04;891.45;;;832.83;;
17197;SDS011;8715;51.010;6.812;2024-01-30T15:17:50;884.28;;;826.08;;
17197;SDS011;8715;51.010;6.812;2024-01-30T15:20:36;886.67;;;828.70;;
17197;SDS011;8715;51.010;6.812;2024-01-30T15:23:21;887.58;;;829.67;;
17197;SDS011;8715;51.010;6.812;2024-01-30T15:26:06;881.28;;;823.75;;
17197;SDS011;8715;51.010;6.812;2024-01-30T15:28:51;882.83;;;825.25;;
17197;SDS011;8715;51.010;6.812;2024-01-30T15:31:36;878.90;;;821.92;;
17197;SDS011;8715;51.010;6.812;2024-01-30T15:34:21;887.97;;;829.95;;
17197;SDS011;8715;51.010;6.812;2024-01-30T15:37:08;886.20;;;829.00;;
17197;SDS011;8715;51.010;6.812;2024-01-30T15:39:53;879.88;;;822.80;;
17197;SDS011;8715;51.010;6.812;2024-01-30T15:42:38;883.00;;;826.13;;
17197;SDS011;8715;51.010;6.812;2024-01-30T15:45:23;879.92;;;823.58;;
17197;SDS011;8715;51.010;6.812;2024-01-30T15:48:08;872.70;;;816.70;;
17197;SDS011;8715;51.010;6.812;2024-01-30T15:50:53;878.10;;;821.88;;
17197;SDS011;8715;51.010;6.812;2024-01-30T15:53:39;873.78;;;818.05;;
17197;SDS011;8715;51.010;6.812;2024-01-30T15:56:25;868.75;;;813.67;;
17197;SDS011;8715;51.010;6.812;2024-01-30T15:59:10;874.90;;;819.70;;